PWSweather.com
Personal Weather Stations
Station Observations
WHITEHV
Whitehorse, YK y1a5w5

Whitehorse, YK y1a5w5

Lat: 60.829, Lon: -135.194

Elevation: 2165

Station Type: DAVIS VANTAGE PRO 2

Latest ConditionsUpdated 6:45:01 PM PDT Thursday, Mar 26, 2015
Currently Today's Max Today's Min Today's Average
Temperature 43.3°F6.3°C 46.1°F7.8°C 31.0°F-0.6°C 37.0°F2.8°C
Dew Point 28.2°F-2.1°C 29.2°F-1.6°C 13.5°F-10.3°C 22.6°F-5.2°C
Winds 1.2 mph SE1.9 kmh SE 3.5 mph SE5.6 kmh SE - 1.0 mph 1.6 kmh
Wind Gusts 2.3 mph3.7 kmh 8.1 mph13.0 kmh - -
Humidity 55% 72% 44% 56%
Pressure 29.75 in1007.5 mb 29.83 in1010.2 mb 29.75 in1007.5 mb -
Hour Temp Dew Point Humidity Winds Wind Gusts Pressure Precip Precip Rate Daily Precip Total
06:45 PM 43.3°F6.3°C 28.2°F-2.1°C 55% 1.2 mph SE1.9 kmh SE 2.3 mph3.7 kmh 29.75 in1007.5 mb - 0.00 in0.0 mm 0.00 in0.0 mm
06:31 PM 43.7°F6.5°C 28.6°F-1.9°C 55% Calm Calm 1.2 mph1.9 kmh 29.76 in1007.8 mb - 0.00 in0.0 mm 0.00 in0.0 mm
06:15 PM 44.0°F6.7°C 28.4°F-2.0°C 54% 1.2 mph SE1.9 kmh SE 3.5 mph5.6 kmh 29.76 in1007.8 mb - 0.00 in0.0 mm 0.00 in0.0 mm
06:00 PM 44.4°F6.9°C 28.8°F-1.8°C 54% Calm Calm 1.2 mph1.9 kmh 29.75 in1007.5 mb - 0.00 in0.0 mm 0.00 in0.0 mm
05:45 PM 44.6°F7.0°C 29.0°F-1.7°C 54% 1.2 mph SE1.9 kmh SE 2.3 mph3.7 kmh 29.75 in1007.5 mb - 0.00 in0.0 mm 0.00 in0.0 mm
05:31 PM 44.8°F7.1°C 29.2°F-1.6°C 54% Calm Calm 3.5 mph5.6 kmh 29.75 in1007.5 mb - 0.00 in0.0 mm 0.00 in0.0 mm
05:15 PM 44.9°F7.2°C 28.8°F-1.8°C 53% 1.2 mph NNE1.9 kmh NNE 2.3 mph3.7 kmh 29.75 in1007.5 mb - 0.00 in0.0 mm 0.00 in0.0 mm
05:01 PM 45.1°F7.3°C 28.9°F-1.7°C 53% 1.2 mph SE1.9 kmh SE 2.3 mph3.7 kmh 29.75 in1007.5 mb - 0.00 in0.0 mm 0.00 in0.0 mm
04:45 PM 45.3°F7.4°C 28.7°F-1.8°C 52% Calm Calm 1.2 mph1.9 kmh 29.75 in1007.5 mb - 0.00 in0.0 mm 0.00 in0.0 mm
04:31 PM 45.5°F7.5°C 28.4°F-2.0°C 51% 1.2 mph S1.9 kmh S 4.6 mph7.4 kmh 29.75 in1007.5 mb - 0.00 in0.0 mm 0.00 in0.0 mm
04:15 PM 45.5°F7.5°C 28.4°F-2.0°C 51% 1.2 mph NNE1.9 kmh NNE 5.8 mph9.3 kmh 29.75 in1007.5 mb - 0.00 in0.0 mm 0.00 in0.0 mm
04:01 PM 45.5°F7.5°C 28.0°F-2.2°C 50% 2.3 mph NNW3.7 kmh NNW 6.9 mph11.1 kmh 29.75 in1007.5 mb - 0.00 in0.0 mm 0.00 in0.0 mm
03:45 PM 45.9°F7.7°C 28.3°F-2.1°C 50% 1.2 mph SSE1.9 kmh SSE 1.2 mph1.9 kmh 29.76 in1007.8 mb - 0.00 in0.0 mm 0.00 in0.0 mm
03:31 PM 46.0°F7.8°C 28.4°F-2.0°C 50% 2.3 mph ESE3.7 kmh ESE 3.5 mph5.6 kmh 29.75 in1007.5 mb - 0.00 in0.0 mm 0.00 in0.0 mm
03:15 PM 46.1°F7.8°C 28.5°F-1.9°C 50% 1.2 mph NE1.9 kmh NE 4.6 mph7.4 kmh 29.76 in1007.8 mb - 0.00 in0.0 mm 0.00 in0.0 mm
03:01 PM 45.6°F7.6°C 28.5°F-1.9°C 51% Calm Calm 2.3 mph3.7 kmh 29.77 in1008.1 mb - 0.00 in0.0 mm 0.00 in0.0 mm
02:45 PM 45.0°F7.2°C 28.4°F-2.0°C 52% 1.2 mph SSE1.9 kmh SSE 2.3 mph3.7 kmh 29.77 in1008.1 mb - 0.00 in0.0 mm 0.00 in0.0 mm
02:31 PM 44.6°F7.0°C 28.5°F-1.9°C 53% 2.3 mph N3.7 kmh N 5.8 mph9.3 kmh 29.77 in1008.1 mb - 0.00 in0.0 mm 0.00 in0.0 mm
02:15 PM 44.1°F6.7°C 28.5°F-1.9°C 54% 1.2 mph S1.9 kmh S 4.6 mph7.4 kmh 29.77 in1008.1 mb - 0.00 in0.0 mm 0.00 in0.0 mm
02:01 PM 43.4°F6.3°C 28.3°F-2.1°C 55% 1.2 mph SE1.9 kmh SE 2.3 mph3.7 kmh 29.77 in1008.1 mb - 0.00 in0.0 mm 0.00 in0.0 mm
01:45 PM 43.0°F6.1°C 28.3°F-2.1°C 56% 2.3 mph SSE3.7 kmh SSE 5.8 mph9.3 kmh 29.77 in1008.1 mb - 0.00 in0.0 mm 0.00 in0.0 mm
01:31 PM 42.4°F5.8°C 28.2°F-2.1°C 57% Calm Calm -- 29.78 in1008.5 mb - 0.00 in0.0 mm 0.00 in0.0 mm
01:15 PM 41.7°F5.4°C 28.0°F-2.2°C 58% Calm Calm -- 29.78 in1008.5 mb - 0.00 in0.0 mm 0.00 in0.0 mm
01:01 PM 40.9°F4.9°C 27.6°F-2.4°C 59% Calm Calm 1.2 mph1.9 kmh 29.77 in1008.1 mb - 0.00 in0.0 mm 0.00 in0.0 mm
12:45 PM 40.2°F4.6°C 27.4°F-2.6°C 60% Calm Calm 1.2 mph1.9 kmh 29.78 in1008.5 mb - 0.00 in0.0 mm 0.00 in0.0 mm
12:31 PM 39.7°F4.3°C 26.9°F-2.8°C 60% 1.2 mph S1.9 kmh S 4.6 mph7.4 kmh 29.78 in1008.5 mb - 0.00 in0.0 mm 0.00 in0.0 mm
12:15 PM 39.5°F4.2°C 27.1°F-2.7°C 61% 2.3 mph SE3.7 kmh SE 3.5 mph5.6 kmh 29.78 in1008.5 mb - 0.00 in0.0 mm 0.00 in0.0 mm
12:01 PM 39.4°F4.1°C 27.1°F-2.7°C 61% 1.2 mph S1.9 kmh S 3.5 mph5.6 kmh 29.78 in1008.5 mb - 0.00 in0.0 mm 0.00 in0.0 mm
11:45 AM 39.4°F4.1°C 26.7°F-2.9°C 60% 3.5 mph ESE5.6 kmh ESE 5.8 mph9.3 kmh 29.79 in1008.8 mb - 0.00 in0.0 mm 0.00 in0.0 mm
11:31 AM 39.1°F3.9°C 26.4°F-3.1°C 60% 2.3 mph S3.7 kmh S 5.8 mph9.3 kmh 29.79 in1008.8 mb - 0.00 in0.0 mm 0.00 in0.0 mm
11:15 AM 38.7°F3.7°C 26.4°F-3.1°C 61% 2.3 mph SSE3.7 kmh SSE 4.6 mph7.4 kmh 29.79 in1008.8 mb - 0.00 in0.0 mm 0.00 in0.0 mm
11:01 AM 37.8°F3.2°C 26.7°F-2.9°C 64% 1.2 mph SSE1.9 kmh SSE 6.9 mph11.1 kmh 29.79 in1008.8 mb - 0.00 in0.0 mm 0.00 in0.0 mm
10:45 AM 36.4°F2.4°C 26.1°F-3.3°C 66% 1.2 mph S1.9 kmh S 2.3 mph3.7 kmh 29.79 in1008.8 mb - 0.00 in0.0 mm 0.00 in0.0 mm
10:31 AM 35.7°F2.1°C 25.4°F-3.7°C 66% 1.2 mph S1.9 kmh S 4.6 mph7.4 kmh 29.79 in1008.8 mb - 0.00 in0.0 mm 0.00 in0.0 mm
10:15 AM 35.2°F1.8°C 25.3°F-3.7°C 67% 2.3 mph SSE3.7 kmh SSE 5.8 mph9.3 kmh 29.79 in1008.8 mb - 0.00 in0.0 mm 0.00 in0.0 mm
10:01 AM 34.3°F1.3°C 24.8°F-4.0°C 68% 3.5 mph SE5.6 kmh SE 4.6 mph7.4 kmh 29.79 in1008.8 mb - 0.00 in0.0 mm 0.00 in0.0 mm
09:45 AM 33.8°F1.0°C 24.7°F-4.1°C 69% 3.5 mph SE5.6 kmh SE 5.8 mph9.3 kmh 29.79 in1008.8 mb - 0.00 in0.0 mm 0.00 in0.0 mm
09:31 AM 33.0°F0.6°C 24.3°F-4.3°C 70% 2.3 mph NE3.7 kmh NE 6.9 mph11.1 kmh 29.78 in1008.5 mb - 0.00 in0.0 mm 0.00 in0.0 mm
09:15 AM 32.1°F0.1°C 23.8°F-4.6°C 71% 2.3 mph SE3.7 kmh SE 3.5 mph5.6 kmh 29.79 in1008.8 mb - 0.00 in0.0 mm 0.00 in0.0 mm
09:00 AM 31.4°F-0.3°C 23.4°F-4.8°C 72% 2.3 mph SE3.7 kmh SE 4.6 mph7.4 kmh 29.79 in1008.8 mb - 0.00 in0.0 mm 0.00 in0.0 mm
08:45 AM 31.1°F-0.5°C 22.4°F-5.3°C 70% 1.2 mph SSE1.9 kmh SSE 3.5 mph5.6 kmh 29.79 in1008.8 mb - 0.00 in0.0 mm 0.00 in0.0 mm
08:31 AM 31.0°F-0.6°C 22.0°F-5.6°C 69% 1.2 mph S1.9 kmh S 4.6 mph7.4 kmh 29.79 in1008.8 mb - 0.00 in0.0 mm 0.00 in0.0 mm
08:15 AM 31.1°F-0.5°C 22.5°F-5.3°C 70% 1.2 mph SE1.9 kmh SE 3.5 mph5.6 kmh 29.79 in1008.8 mb - 0.00 in0.0 mm 0.00 in0.0 mm
08:01 AM 31.2°F-0.4°C 22.2°F-5.4°C 69% 2.3 mph S3.7 kmh S 6.9 mph11.1 kmh 29.79 in1008.8 mb - 0.00 in0.0 mm 0.00 in0.0 mm
07:45 AM 31.4°F-0.3°C 21.7°F-5.7°C 67% 1.2 mph SSE1.9 kmh SSE 6.9 mph11.1 kmh 29.79 in1008.8 mb - 0.00 in0.0 mm 0.00 in0.0 mm
07:31 AM 31.6°F-0.2°C 21.5°F-5.8°C 66% Calm Calm 1.2 mph1.9 kmh 29.80 in1009.1 mb - 0.00 in0.0 mm 0.00 in0.0 mm
07:15 AM 31.6°F-0.2°C 21.2°F-6.0°C 65% 2.3 mph SE3.7 kmh SE 5.8 mph9.3 kmh 29.80 in1009.1 mb - 0.00 in0.0 mm 0.00 in0.0 mm
07:01 AM 31.8°F-0.1°C 21.0°F-6.1°C 64% 2.3 mph E3.7 kmh E 3.5 mph5.6 kmh 29.80 in1009.1 mb - 0.00 in0.0 mm 0.00 in0.0 mm
06:45 AM 32.0°F0.0°C 20.8°F-6.2°C 63% 1.2 mph E1.9 kmh E 1.2 mph1.9 kmh 29.79 in1008.8 mb - 0.00 in0.0 mm 0.00 in0.0 mm
06:31 AM 32.1°F0.1°C 20.1°F-6.6°C 61% 1.2 mph NE1.9 kmh NE 2.3 mph3.7 kmh 29.79 in1008.8 mb - 0.00 in0.0 mm 0.00 in0.0 mm
06:15 AM 32.2°F0.1°C 19.8°F-6.8°C 60% 1.2 mph E1.9 kmh E 8.1 mph13.0 kmh 29.79 in1008.8 mb - 0.00 in0.0 mm 0.00 in0.0 mm
06:01 AM 32.2°F0.1°C 18.7°F-7.4°C 57% 1.2 mph ESE1.9 kmh ESE 4.6 mph7.4 kmh 29.79 in1008.8 mb - 0.00 in0.0 mm 0.00 in0.0 mm
05:45 AM 32.1°F0.1°C 18.1°F-7.7°C 56% 2.3 mph SSE3.7 kmh SSE 1.2 mph1.9 kmh 29.79 in1008.8 mb - 0.00 in0.0 mm 0.00 in0.0 mm
05:31 AM 31.5°F-0.3°C 17.2°F-8.2°C 55% 2.3 mph SE3.7 kmh SE 5.8 mph9.3 kmh 29.79 in1008.8 mb - 0.00 in0.0 mm 0.00 in0.0 mm
05:15 AM 31.5°F-0.3°C 17.2°F-8.2°C 55% Calm Calm 2.3 mph3.7 kmh 29.80 in1009.1 mb - 0.00 in0.0 mm 0.00 in0.0 mm
05:01 AM 32.0°F0.0°C 16.8°F-8.4°C 53% Calm Calm 3.5 mph5.6 kmh 29.81 in1009.5 mb - 0.00 in0.0 mm 0.00 in0.0 mm
04:45 AM 32.1°F0.1°C 16.9°F-8.4°C 53% Calm Calm 1.2 mph1.9 kmh 29.81 in1009.5 mb - 0.00 in0.0 mm 0.00 in0.0 mm
04:31 AM 31.7°F-0.2°C 16.1°F-8.8°C 52% Calm Calm 1.2 mph1.9 kmh 29.80 in1009.1 mb - 0.00 in0.0 mm 0.00 in0.0 mm
04:15 AM 31.4°F-0.3°C 14.9°F-9.5°C 50% 1.2 mph SE1.9 kmh SE 2.3 mph3.7 kmh 29.80 in1009.1 mb - 0.00 in0.0 mm 0.00 in0.0 mm
04:01 AM 32.4°F0.2°C 14.9°F-9.5°C 48% Calm Calm -- 29.81 in1009.5 mb - 0.00 in0.0 mm 0.00 in0.0 mm
03:45 AM 33.2°F0.7°C 15.1°F-9.4°C 47% Calm Calm -- 29.81 in1009.5 mb - 0.00 in0.0 mm 0.00 in0.0 mm
03:31 AM 33.5°F0.8°C 15.4°F-9.2°C 47% Calm Calm -- 29.82 in1009.8 mb - 0.00 in0.0 mm 0.00 in0.0 mm
03:15 AM 33.7°F0.9°C 15.6°F-9.1°C 47% Calm Calm 2.3 mph3.7 kmh 29.82 in1009.8 mb - 0.00 in0.0 mm 0.00 in0.0 mm
03:01 AM 33.8°F1.0°C 15.7°F-9.1°C 47% Calm Calm 3.5 mph5.6 kmh 29.83 in1010.2 mb - 0.00 in0.0 mm 0.00 in0.0 mm
02:45 AM 33.4°F0.8°C 14.8°F-9.6°C 46% Calm Calm 1.2 mph1.9 kmh 29.83 in1010.2 mb - 0.00 in0.0 mm 0.00 in0.0 mm
02:31 AM 32.8°F0.4°C 14.3°F-9.8°C 46% Calm Calm 1.2 mph1.9 kmh 29.82 in1009.8 mb - 0.00 in0.0 mm 0.00 in0.0 mm
02:15 AM 32.8°F0.4°C 14.3°F-9.8°C 46% Calm Calm -- 29.82 in1009.8 mb - 0.00 in0.0 mm 0.00 in0.0 mm
02:01 AM 33.1°F0.6°C 14.0°F-10.0°C 45% Calm Calm -- 29.82 in1009.8 mb - 0.00 in0.0 mm 0.00 in0.0 mm
01:45 AM 33.6°F0.9°C 14.0°F-10.0°C 44% Calm Calm 1.2 mph1.9 kmh 29.82 in1009.8 mb - 0.00 in0.0 mm 0.00 in0.0 mm
01:31 AM 33.9°F1.1°C 14.3°F-9.8°C 44% Calm Calm -- 29.82 in1009.8 mb - 0.00 in0.0 mm 0.00 in0.0 mm
01:15 AM 33.9°F1.1°C 14.2°F-9.9°C 44% Calm Calm -- 29.83 in1010.2 mb - 0.00 in0.0 mm 0.00 in0.0 mm
01:01 AM 33.5°F0.8°C 14.4°F-9.8°C 45% 1.2 mph SE1.9 kmh SE 2.3 mph3.7 kmh 29.82 in1009.8 mb - 0.00 in0.0 mm 0.00 in0.0 mm
12:45 AM 32.9°F0.5°C 14.4°F-9.8°C 46% Calm Calm -- 29.81 in1009.5 mb - 0.00 in0.0 mm 0.00 in0.0 mm
12:31 AM 32.4°F0.2°C 14.4°F-9.8°C 47% Calm Calm 1.2 mph1.9 kmh 29.81 in1009.5 mb - 0.00 in0.0 mm 0.00 in0.0 mm
12:15 AM 32.0°F0.0°C 14.1°F-9.9°C 47% Calm Calm -- 29.81 in1009.5 mb - 0.00 in0.0 mm 0.00 in0.0 mm
12:01 AM 31.9°F-0.1°C 13.5°F-10.3°C 46% Calm Calm 1.2 mph1.9 kmh 29.82 in1009.8 mb - 0.00 in0.0 mm 0.00 in0.0 mm